Time;durP1;ratioP1;P1;durP2;ratioP2;P2;SDS_P1;SDS_P2;PMS_P1;PMS_P2;Temp;Humidity;BMP_temperature;BMP_pressure;BME280_temperature;BME280_humidity;BME280_pressure;Samples;Min_cycle;Max_cycle;Signal;HPM_P1;HPM_P2
2021/01/13 05:46:51;;;;;;;5.65;2.72;;;;;;;;;;6242163;22;884414;-80
2021/01/13 05:49:17;;;;;;;6.80;2.42;;;;;;;;;;6306760;22;20397;-80
2021/01/13 05:51:43;;;;;;;5.35;2.63;;;;;;;;;;6306400;22;20121;-80
2021/01/13 05:54:15;;;;;;;5.28;2.92;;;;;;;;;;6306333;22;19995;-80
2021/01/13 05:56:41;;;;;;;7.72;2.80;;;;;;;;;;6286340;22;20049;-80
2021/01/13 05:59:09;;;;;;;5.75;2.83;;;;;;;;;;6275856;22;20053;-81
2021/01/13 06:01:41;;;;;;;5.38;2.58;;;;;;;;;;6275954;22;20663;-80
2021/01/13 06:04:08;;;;;;;7.88;2.90;;;;;;;;;;6278613;22;20008;-81
2021/01/13 06:06:35;;;;;;;11.27;3.15;;;;;;;;;;6276601;22;20014;-81
2021/01/13 06:09:02;;;;;;;9.48;3.38;;;;;;;;;;6280026;22;20052;-81
2021/01/13 06:11:29;;;;;;;9.35;3.97;;;;;;;;;;6279226;22;20037;-79
2021/01/13 06:13:57;;;;;;;10.82;3.53;;;;;;;;;;6278282;22;20492;-80
2021/01/13 06:16:23;;;;;;;8.77;3.85;;;;;;;;;;6279414;22;20061;-81
2021/01/13 06:18:50;;;;;;;9.70;3.25;;;;;;;;;;6279299;22;19999;-81
2021/01/13 06:21:16;;;;;;;10.63;4.32;;;;;;;;;;6252477;22;20003;-81
2021/01/13 06:23:48;;;;;;;13.25;4.65;;;;;;;;;;6278170;22;20004;-80
2021/01/13 06:26:15;;;;;;;9.30;4.97;;;;;;;;;;6251755;22;20087;-81
2021/01/13 06:29:01;;;;;;;13.15;5.13;;;;;;;;;;6279111;22;20008;-80
2021/01/13 06:31:28;;;;;;;17.15;6.85;;;;;;;;;;6251482;22;20000;-80
2021/01/13 06:34:06;;;;;;;10.50;5.55;;;;;;;;;;6278762;22;20068;-81
2021/01/13 06:36:42;;;;;;;11.90;5.28;;;;;;;;;;6278824;22;19992;-80
2021/01/13 06:39:08;;;;;;;13.13;7.30;;;;;;;;;;6279243;22;20003;-81
2021/01/13 06:41:48;;;;;;;11.18;5.07;;;;;;;;;;6279201;22;20004;-81
2021/01/13 06:44:15;;;;;;;20.40;4.93;;;;;;;;;;6278347;22;20015;-80
2021/01/13 06:46:41;;;;;;;12.50;5.57;;;;;;;;;;6278734;22;20015;-80
2021/01/13 06:49:14;;;;;;;11.05;5.65;;;;;;;;;;6279501;22;20324;-81
2021/01/13 06:51:42;;;;;;;15.65;5.97;;;;;;;;;;6279866;22;20090;-80
2021/01/13 06:54:08;;;;;;;12.18;6.50;;;;;;;;;;6251572;22;20004;-81
2021/01/13 06:56:36;;;;;;;13.90;6.35;;;;;;;;;;6279105;22;20000;-79
2021/01/13 06:59:02;;;;;;;14.25;6.75;;;;;;;;;;6252365;22;20319;-79
2021/01/13 07:01:29;;;;;;;14.50;7.50;;;;;;;;;;6280088;22;20014;-80
2021/01/13 07:03:58;;;;;;;19.23;8.20;;;;;;;;;;6278800;22;20011;-80
2021/01/13 07:06:24;;;;;;;17.58;8.45;;;;;;;;;;6276910;22;20445;-79
2021/01/13 07:08:51;;;;;;;16.27;8.13;;;;;;;;;;6279092;22;20004;-81
2021/01/13 07:11:18;;;;;;;19.40;8.27;;;;;;;;;;6253045;22;20010;-81
2021/01/13 07:13:51;;;;;;;15.95;8.13;;;;;;;;;;6251200;22;19996;-80
2021/01/13 07:16:21;;;;;;;21.13;8.95;;;;;;;;;;6279401;22;19995;-80
2021/01/13 07:18:47;;;;;;;20.77;10.05;;;;;;;;;;6251739;22;20003;-81
2021/01/13 07:21:13;;;;;;;22.92;11.38;;;;;;;;;;6251369;22;20007;-80
2021/01/13 07:23:43;;;;;;;18.08;9.23;;;;;;;;;;6250778;22;20042;-80
2021/01/13 07:26:09;;;;;;;19.27;10.18;;;;;;;;;;6251085;22;20077;-79
2021/01/13 07:28:35;;;;;;;17.38;8.73;;;;;;;;;;6278721;22;20000;-80
2021/01/13 07:31:02;;;;;;;19.65;9.73;;;;;;;;;;6251933;22;20031;-80
2021/01/13 07:33:33;;;;;;;17.00;9.23;;;;;;;;;;6278183;22;20019;-81
2021/01/13 07:35:59;;;;;;;17.13;8.77;;;;;;;;;;6278941;22;20007;-81
2021/01/13 07:38:29;;;;;;;21.40;9.32;;;;;;;;;;6278761;22;19996;-80
2021/01/13 07:40:59;;;;;;;16.58;8.98;;;;;;;;;;6276589;22;19996;-81
2021/01/13 07:43:42;;;;;;;20.73;11.38;;;;;;;;;;6250477;22;19999;-80
2021/01/13 07:46:16;;;;;;;28.27;16.05;;;;;;;;;;6247598;22;20345;-80
2021/01/13 07:49:05;;;;;;;28.50;16.27;;;;;;;;;;6275656;22;20010;-80
2021/01/13 07:51:34;;;;;;;39.20;19.95;;;;;;;;;;6277980;22;20017;-81
2021/01/13 07:54:07;;;;;;;39.20;21.83;;;;;;;;;;6279270;22;20012;-80
2021/01/13 07:56:36;;;;;;;41.95;24.30;;;;;;;;;;6278653;22;20059;-80
2021/01/13 07:59:20;;;;;;;58.05;27.75;;;;;;;;;;6275608;22;20002;-80
2021/01/13 08:02:06;;;;;;;44.22;21.27;;;;;;;;;;6282212;22;20006;-81
2021/01/13 08:04:51;;;;;;;43.92;20.80;;;;;;;;;;6279135;22;20000;-81
2021/01/13 08:07:17;;;;;;;36.80;20.15;;;;;;;;;;6279066;22;20046;-81
2021/01/13 08:09:51;;;;;;;35.50;20.13;;;;;;;;;;6279279;22;20003;-81
2021/01/13 08:12:46;;;;;;;50.25;24.50;;;;;;;;;;6278382;22;20008;-80
2021/01/13 08:15:18;;;;;;;66.32;32.08;;;;;;;;;;6277434;22;20619;-81
2021/01/13 08:18:09;;;;;;;57.33;28.95;;;;;;;;;;6277920;22;20418;-81
2021/01/13 08:20:55;;;;;;;51.97;26.33;;;;;;;;;;6279143;22;20377;-81
2021/01/13 08:23:26;;;;;;;56.33;27.95;;;;;;;;;;6279866;22;20027;-81
2021/01/13 08:25:57;;;;;;;63.20;31.27;;;;;;;;;;6279385;22;20114;-81
2021/01/13 08:28:23;;;;;;;52.22;27.27;;;;;;;;;;6279374;22;20405;-81
2021/01/13 08:30:50;;;;;;;48.88;26.23;;;;;;;;;;6277613;22;20086;-82
2021/01/13 08:33:23;;;;;;;48.95;26.63;;;;;;;;;;6278023;22;19996;-82
2021/01/13 08:35:52;;;;;;;47.53;24.05;;;;;;;;;;6275607;22;20007;-82
2021/01/13 08:38:18;;;;;;;45.70;22.60;;;;;;;;;;6276034;22;20023;-80
2021/01/13 08:40:45;;;;;;;37.63;20.40;;;;;;;;;;6278055;22;20028;-82
2021/01/13 08:43:13;;;;;;;35.03;19.13;;;;;;;;;;6277780;22;20007;-82
2021/01/13 08:45:46;;;;;;;41.38;22.25;;;;;;;;;;6275913;22;20018;-81
2021/01/13 08:48:14;;;;;;;47.90;24.25;;;;;;;;;;6251198;22;20012;-82
2021/01/13 08:50:40;;;;;;;48.55;27.80;;;;;;;;;;6277655;22;20004;-81
2021/01/13 08:53:06;;;;;;;50.83;27.67;;;;;;;;;;6280718;22;20015;-81
2021/01/13 08:55:33;;;;;;;51.03;28.45;;;;;;;;;;6279668;22;20000;-82
2021/01/13 08:58:07;;;;;;;47.15;27.50;;;;;;;;;;6281211;22;20012;-82
2021/01/13 09:00:34;;;;;;;50.10;28.55;;;;;;;;;;6283028;22;20008;-82
2021/01/13 09:03:04;;;;;;;35.60;20.95;;;;;;;;;;6282768;22;20004;-80
2021/01/13 09:05:31;;;;;;;23.30;14.93;;;;;;;;;;6282073;22;20065;-82
2021/01/13 09:08:02;;;;;;;25.15;15.82;;;;;;;;;;6281875;22;20004;-82
2021/01/13 09:10:47;;;;;;;19.77;12.88;;;;;;;;;;6284761;22;20026;-82
2021/01/13 09:13:32;;;;;;;18.80;11.48;;;;;;;;;;6263240;22;20071;-80
2021/01/13 09:16:18;;;;;;;16.85;10.38;;;;;;;;;;6276408;22;19996;-80
2021/01/13 09:18:46;;;;;;;17.50;9.70;;;;;;;;;;6271240;22;20031;-80
2021/01/13 09:21:14;;;;;;;18.80;9.10;;;;;;;;;;6300751;22;20023;-83
2021/01/13 09:23:47;;;;;;;21.65;9.88;;;;;;;;;;6287460;22;20041;-82
2021/01/13 09:26:14;;;;;;;18.42;9.23;;;;;;;;;;6287633;22;20011;-82
2021/01/13 09:31:11;;;;;;;18.80;9.63;;;;;;;;;;5118005;27;20392;-83
2021/01/13 09:33:38;;;;;;;13.63;7.57;;;;;;;;;;5104923;28;20047;-82
2021/01/13 09:36:04;;;;;;;17.13;9.07;;;;;;;;;;5121499;28;20017;-82
2021/01/13 09:38:34;;;;;;;15.13;8.80;;;;;;;;;;5087219;28;20068;-84
2021/01/13 09:41:01;;;;;;;13.13;6.57;;;;;;;;;;5089219;28;20071;-84
2021/01/13 09:43:27;;;;;;;13.48;7.65;;;;;;;;;;5083946;28;20106;-85
2021/01/13 09:45:54;;;;;;;14.60;6.85;;;;;;;;;;5093014;28;20083;-84
2021/01/13 09:48:20;;;;;;;13.80;8.93;;;;;;;;;;5085879;28;20380;-85
2021/01/13 09:50:57;;;;;;;16.50;9.82;;;;;;;;;;5073587;28;20041;-85
2021/01/13 09:53:28;;;;;;;18.75;10.48;;;;;;;;;;5063872;28;20033;-83
2021/01/13 09:55:55;;;;;;;19.63;11.13;;;;;;;;;;5065961;28;20053;-83
2021/01/13 09:58:32;;;;;;;20.75;9.77;;;;;;;;;;5084087;28;20734;-84
2021/01/13 10:01:05;;;;;;;31.95;15.27;;;;;;;;;;5061453;28;20030;-84
2021/01/13 10:03:33;;;;;;;49.22;22.92;;;;;;;;;;5070815;28;20453;-84
2021/01/13 10:05:59;;;;;;;36.95;17.00;;;;;;;;;;5070793;28;20029;-84
2021/01/13 10:08:32;;;;;;;26.02;13.55;;;;;;;;;;5062700;28;20036;-86
2021/01/13 10:11:01;;;;;;;23.13;12.63;;;;;;;;;;5074081;28;20033;-87
2021/01/13 10:13:29;;;;;;;21.15;11.85;;;;;;;;;;5064799;28;20021;-86
2021/01/13 10:16:00;;;;;;;20.75;10.93;;;;;;;;;;5091754;28;20475;-86
2021/01/13 10:18:26;;;;;;;28.85;14.32;;;;;;;;;;5081819;28;20044;-86
2021/01/13 10:20:56;;;;;;;23.15;9.95;;;;;;;;;;5082800;28;20039;-87
2021/01/13 10:23:25;;;;;;;20.52;10.18;;;;;;;;;;5065806;28;20427;-86
2021/01/13 10:25:59;;;;;;;18.27;9.63;;;;;;;;;;5069368;28;20060;-86
2021/01/13 10:28:28;;;;;;;17.88;9.65;;;;;;;;;;5062312;28;20029;-86
2021/01/13 10:30:54;;;;;;;17.50;9.15;;;;;;;;;;5072449;28;20036;-83
2021/01/13 10:33:35;;;;;;;14.77;8.63;;;;;;;;;;5092867;28;20024;-84
2021/01/13 10:36:01;;;;;;;17.60;9.40;;;;;;;;;;5082731;28;20036;-84
2021/01/13 10:38:29;;;;;;;20.95;10.27;;;;;;;;;;5090158;28;20021;-84
2021/01/13 10:40:55;;;;;;;25.38;11.57;;;;;;;;;;5059373;28;20047;-84
2021/01/13 10:43:22;;;;;;;20.55;10.30;;;;;;;;;;5054193;28;20503;-83
2021/01/13 10:45:58;;;;;;;17.15;9.77;;;;;;;;;;5055657;28;20025;-83
2021/01/13 10:50:44;;;;;;;22.25;10.65;;;;;;;;;;5112228;27;20451;-82
2021/01/13 10:53:10;;;;;;;21.88;11.10;;;;;;;;;;5096560;28;20028;-82
2021/01/13 10:55:39;;;;;;;23.02;11.02;;;;;;;;;;5100906;28;20043;-82
2021/01/13 10:58:06;;;;;;;21.02;10.55;;;;;;;;;;5092478;28;20025;-82
2021/01/13 11:00:32;;;;;;;23.27;10.57;;;;;;;;;;5084288;28;20024;-83
2021/01/13 11:02:59;;;;;;;16.75;9.00;;;;;;;;;;5078831;28;20502;-83
2021/01/13 11:05:25;;;;;;;12.80;7.68;;;;;;;;;;5097570;28;20507;-83
2021/01/13 11:07:53;;;;;;;13.52;7.78;;;;;;;;;;5115435;28;20012;-83
2021/01/13 11:10:23;;;;;;;20.17;9.93;;;;;;;;;;5080745;28;20036;-84
2021/01/13 11:12:49;;;;;;;15.60;8.23;;;;;;;;;;5076631;28;20016;-83
2021/01/13 11:15:15;;;;;;;14.73;8.10;;;;;;;;;;5081337;28;20036;-84
2021/01/13 11:17:41;;;;;;;15.68;8.30;;;;;;;;;;5079483;28;20102;-83
2021/01/13 11:20:08;;;;;;;15.15;7.35;;;;;;;;;;5082565;28;20052;-84
2021/01/13 11:22:45;;;;;;;18.67;7.60;;;;;;;;;;5080212;28;20767;-83
2021/01/13 11:25:20;;;;;;;14.63;6.20;;;;;;;;;;5090922;28;20032;-82
2021/01/13 11:27:54;;;;;;;18.92;8.93;;;;;;;;;;5092245;28;20037;-82
2021/01/13 11:30:20;;;;;;;17.08;7.45;;;;;;;;;;5091173;28;20056;-82
2021/01/13 11:32:50;;;;;;;16.90;7.60;;;;;;;;;;5084295;28;20036;-82
2021/01/13 11:35:24;;;;;;;16.52;7.22;;;;;;;;;;5084014;28;20058;-83
2021/01/13 11:37:52;;;;;;;26.60;11.23;;;;;;;;;;5079786;28;20032;-82
2021/01/13 11:40:24;;;;;;;14.88;6.97;;;;;;;;;;5082939;28;20062;-83
2021/01/13 11:43:08;;;;;;;11.57;5.45;;;;;;;;;;5087389;28;20024;-83
2021/01/13 11:45:37;;;;;;;10.70;4.60;;;;;;;;;;5081999;28;20040;-83
2021/01/13 11:48:07;;;;;;;11.85;4.93;;;;;;;;;;5084120;28;20120;-82
2021/01/13 11:50:37;;;;;;;13.10;5.22;;;;;;;;;;5076527;28;20029;-83
2021/01/13 11:53:04;;;;;;;9.18;3.28;;;;;;;;;;5078860;28;20489;-83
2021/01/13 11:55:31;;;;;;;9.75;3.47;;;;;;;;;;5104800;28;20120;-83
2021/01/13 12:00:16;;;;;;;7.05;3.42;;;;;;;;;;5090333;28;20402;-82
2021/01/13 12:02:46;;;;;;;9.05;2.85;;;;;;;;;;5083760;28;20017;-83
2021/01/13 12:05:22;;;;;;;9.23;2.97;;;;;;;;;;5080983;28;20017;-83
2021/01/13 12:07:57;;;;;;;8.65;3.50;;;;;;;;;;5087818;28;20035;-83
2021/01/13 12:10:29;;;;;;;11.00;4.63;;;;;;;;;;5081807;28;20032;-83
2021/01/13 12:13:08;;;;;;;7.75;2.95;;;;;;;;;;5087463;28;20380;-83
2021/01/13 12:15:46;;;;;;;7.93;3.92;;;;;;;;;;5079451;28;20025;-83
2021/01/13 12:18:12;;;;;;;13.35;3.83;;;;;;;;;;5069450;28;20056;-84
2021/01/13 12:20:38;;;;;;;9.77;4.07;;;;;;;;;;5083773;28;20029;-83
2021/01/13 12:23:22;;;;;;;8.85;3.88;;;;;;;;;;5075660;28;20477;-83
2021/01/13 12:25:49;;;;;;;8.52;4.05;;;;;;;;;;5078580;28;20033;-84
2021/01/13 12:28:15;;;;;;;13.40;4.15;;;;;;;;;;5077849;28;20032;-83
2021/01/13 12:30:54;;;;;;;9.07;3.13;;;;;;;;;;5082797;28;20095;-84
2021/01/13 12:33:20;;;;;;;10.73;3.05;;;;;;;;;;5067274;28;20056;-84
2021/01/13 12:35:46;;;;;;;11.57;4.00;;;;;;;;;;5074117;28;20048;-84
2021/01/13 12:38:12;;;;;;;9.18;3.67;;;;;;;;;;5077410;28;20034;-83
2021/01/13 12:40:38;;;;;;;8.55;3.00;;;;;;;;;;5072474;28;20012;-84
2021/01/13 12:45:22;;;;;;;9.30;4.53;;;;;;;;;;5109600;27;20400;-83
2021/01/13 12:47:59;;;;;;;12.20;4.18;;;;;;;;;;5096184;28;20024;-83
2021/01/13 12:50:26;;;;;;;9.10;3.50;;;;;;;;;;5076143;28;20095;-83
2021/01/13 12:52:52;;;;;;;8.48;3.63;;;;;;;;;;5080738;28;20427;-83
2021/01/13 12:55:18;;;;;;;12.05;4.55;;;;;;;;;;5093427;28;20460;-83
2021/01/13 12:57:44;;;;;;;12.13;3.90;;;;;;;;;;5094142;28;20036;-83
2021/01/13 13:00:11;;;;;;;13.10;5.50;;;;;;;;;;5102432;28;20024;-83
2021/01/13 13:02:37;;;;;;;12.35;4.65;;;;;;;;;;5098679;28;20024;-83
2021/01/13 13:05:03;;;;;;;11.15;4.07;;;;;;;;;;5094738;28;20024;-83
2021/01/13 13:07:29;;;;;;;9.60;3.90;;;;;;;;;;5098321;28;20089;-83
2021/01/13 13:09:54;;;;;;;12.63;5.20;;;;;;;;;;5096484;28;20111;-83
2021/01/13 13:12:20;;;;;;;14.25;4.57;;;;;;;;;;5091917;28;20036;-83
2021/01/13 13:14:46;;;;;;;13.80;4.97;;;;;;;;;;5104196;28;20057;-81
2021/01/13 13:17:12;;;;;;;9.80;3.85;;;;;;;;;;5099529;28;20040;-83
2021/01/13 13:19:38;;;;;;;12.02;3.65;;;;;;;;;;5099150;28;20106;-83
2021/01/13 13:22:04;;;;;;;10.35;4.57;;;;;;;;;;5097183;28;20068;-83
2021/01/13 13:24:30;;;;;;;13.30;5.03;;;;;;;;;;5095390;28;20028;-82
2021/01/13 13:26:56;;;;;;;8.25;4.43;;;;;;;;;;5102578;28;20081;-83
2021/01/13 13:29:22;;;;;;;14.82;4.65;;;;;;;;;;5093697;28;20434;-84
2021/01/13 13:31:49;;;;;;;12.57;3.80;;;;;;;;;;5088575;28;20024;-84
2021/01/13 13:34:15;;;;;;;34.70;13.25;;;;;;;;;;5092709;28;20032;-83
2021/01/13 13:36:41;;;;;;;11.43;5.00;;;;;;;;;;5091506;28;20111;-83
2021/01/13 13:39:07;;;;;;;19.13;6.53;;;;;;;;;;5097334;28;20115;-83
2021/01/13 13:41:33;;;;;;;14.77;6.60;;;;;;;;;;5098763;28;20387;-83
2021/01/13 13:44:02;;;;;;;13.27;4.68;;;;;;;;;;5097261;28;20027;-84
2021/01/13 13:46:28;;;;;;;15.18;5.20;;;;;;;;;;5089355;28;20025;-83
2021/01/13 13:48:57;;;;;;;13.68;5.63;;;;;;;;;;5099114;28;20027;-83
2021/01/13 13:51:23;;;;;;;11.10;5.13;;;;;;;;;;5079936;28;20087;-83
2021/01/13 13:53:49;;;;;;;21.58;6.05;;;;;;;;;;5092722;28;20441;-84
2021/01/13 13:56:18;;;;;;;17.10;4.63;;;;;;;;;;5085539;28;20505;-83
2021/01/13 13:58:44;;;;;;;8.85;4.38;;;;;;;;;;5078850;28;20085;-83
2021/01/13 14:01:10;;;;;;;13.35;3.67;;;;;;;;;;5077774;28;20103;-84
2021/01/13 14:03:36;;;;;;;10.43;2.80;;;;;;;;;;5081332;28;20153;-83
2021/01/13 14:06:03;;;;;;;6.93;2.90;;;;;;;;;;5085006;28;20108;-83
2021/01/13 14:08:29;;;;;;;10.80;3.47;;;;;;;;;;5082659;28;20021;-83
2021/01/13 14:10:57;;;;;;;11.18;3.40;;;;;;;;;;5080204;28;20024;-83
2021/01/13 14:13:24;;;;;;;8.95;3.97;;;;;;;;;;5076949;28;20028;-83
2021/01/13 14:15:49;;;;;;;9.02;4.47;;;;;;;;;;5083528;28;20023;-82
2021/01/13 14:18:15;;;;;;;10.52;4.45;;;;;;;;;;5083099;28;20035;-82
2021/01/13 14:20:41;;;;;;;17.15;6.30;;;;;;;;;;5081452;28;20052;-82
2021/01/13 14:23:07;;;;;;;12.68;5.30;;;;;;;;;;5083454;28;20027;-82
2021/01/13 14:25:33;;;;;;;7.88;4.10;;;;;;;;;;5071835;28;20476;-83
2021/01/13 14:27:59;;;;;;;12.38;3.60;;;;;;;;;;5071331;28;20017;-83
2021/01/13 14:30:28;;;;;;;9.40;4.05;;;;;;;;;;5077338;28;20028;-83
2021/01/13 14:32:54;;;;;;;9.05;3.97;;;;;;;;;;5072790;28;20039;-82
2021/01/13 14:35:20;;;;;;;11.35;4.60;;;;;;;;;;5076639;28;20021;-82
2021/01/13 14:37:48;;;;;;;24.45;8.85;;;;;;;;;;5080482;28;20057;-82
2021/01/13 14:40:14;;;;;;;24.50;11.77;;;;;;;;;;5075056;28;20040;-81
2021/01/13 14:44:59;;;;;;;30.20;14.88;;;;;;;;;;5099824;27;20343;-82
2021/01/13 14:47:24;;;;;;;22.80;10.00;;;;;;;;;;5087292;28;20086;-82
2021/01/13 14:49:50;;;;;;;14.73;6.50;;;;;;;;;;5092417;28;20031;-83
2021/01/13 14:52:16;;;;;;;17.88;8.73;;;;;;;;;;5096387;28;20034;-82
2021/01/13 14:54:47;;;;;;;12.05;5.78;;;;;;;;;;5092420;28;20476;-83
2021/01/13 14:57:13;;;;;;;9.65;4.32;;;;;;;;;;5090976;28;20513;-82
2021/01/13 14:59:39;;;;;;;28.20;15.90;;;;;;;;;;5100671;28;20017;-80
2021/01/13 15:02:05;;;;;;;25.15;14.27;;;;;;;;;;5119758;28;20054;-80
2021/01/13 15:04:32;;;;;;;64.22;31.17;;;;;;;;;;5117794;28;20027;-81
2021/01/13 15:06:58;;;;;;;51.13;28.33;;;;;;;;;;5118718;28;20015;-80
2021/01/13 15:09:28;;;;;;;45.13;25.33;;;;;;;;;;5109232;28;20032;-83
2021/01/13 15:11:54;;;;;;;40.65;22.70;;;;;;;;;;5098942;28;20031;-82
2021/01/13 15:14:20;;;;;;;25.02;14.38;;;;;;;;;;5098868;28;20051;-82
2021/01/13 15:19:04;;;;;;;30.35;16.95;;;;;;;;;;5070277;27;20427;-83
2021/01/13 15:21:30;;;;;;;24.75;15.73;;;;;;;;;;5077515;28;20017;-82
2021/01/13 15:23:56;;;;;;;12.30;7.50;;;;;;;;;;5084960;28;20060;-80
2021/01/13 15:26:22;;;;;;;14.75;6.60;;;;;;;;;;5083226;28;20017;-80
2021/01/13 15:31:06;;;;;;;14.98;9.02;;;;;;;;;;5118155;27;20746;-83
2021/01/13 15:33:32;;;;;;;13.25;7.40;;;;;;;;;;5116745;28;20081;-83
2021/01/13 15:35:58;;;;;;;15.15;7.20;;;;;;;;;;5119515;28;20028;-82
2021/01/13 15:38:24;;;;;;;23.13;10.88;;;;;;;;;;5113521;28;20103;-83
2021/01/13 15:40:50;;;;;;;18.95;9.38;;;;;;;;;;5123885;28;20043;-82
2021/01/13 15:43:16;;;;;;;38.45;22.55;;;;;;;;;;5118884;28;20020;-83
2021/01/13 15:45:42;;;;;;;33.65;19.92;;;;;;;;;;5119904;28;20083;-82
2021/01/13 15:48:09;;;;;;;35.35;20.48;;;;;;;;;;5120770;28;20100;-82
2021/01/13 15:50:35;;;;;;;47.88;28.33;;;;;;;;;;5124585;28;20569;-82
2021/01/13 15:53:01;;;;;;;33.78;19.00;;;;;;;;;;5128033;28;20024;-82
2021/01/13 15:55:27;;;;;;;41.17;25.52;;;;;;;;;;5122825;28;20034;-83
2021/01/13 15:57:58;;;;;;;39.60;22.83;;;;;;;;;;5132876;28;20027;-83
2021/01/13 16:00:27;;;;;;;32.33;22.15;;;;;;;;;;5122013;28;20024;-82
2021/01/13 16:02:54;;;;;;;26.65;17.48;;;;;;;;;;5111156;28;20497;-83
2021/01/13 16:05:21;;;;;;;27.50;17.20;;;;;;;;;;5123220;28;20387;-82
2021/01/13 16:07:47;;;;;;;29.75;18.73;;;;;;;;;;5110486;28;21006;-82
2021/01/13 16:10:14;;;;;;;13.02;6.40;;;;;;;;;;5123550;28;20035;-82
2021/01/13 16:12:40;;;;;;;14.35;8.13;;;;;;;;;;5124307;28;20519;-81
2021/01/13 16:15:10;;;;;;;26.17;14.95;;;;;;;;;;5125686;28;20032;-82
2021/01/13 16:17:40;;;;;;;22.77;11.82;;;;;;;;;;5123285;28;20472;-82
2021/01/13 16:20:06;;;;;;;13.27;8.73;;;;;;;;;;5124867;28;20468;-82
2021/01/13 16:22:36;;;;;;;8.18;5.50;;;;;;;;;;5113311;28;20024;-82
2021/01/13 16:25:03;;;;;;;12.35;5.13;;;;;;;;;;5120240;28;20032;-82
2021/01/13 16:27:29;;;;;;;10.88;5.05;;;;;;;;;;5114852;28;20659;-81
2021/01/13 16:29:55;;;;;;;8.63;4.65;;;;;;;;;;5118804;28;20433;-82
2021/01/13 16:32:21;;;;;;;7.72;4.30;;;;;;;;;;5117714;28;20023;-82
2021/01/13 16:34:52;;;;;;;10.93;4.10;;;;;;;;;;5118389;28;20502;-82
2021/01/13 16:37:18;;;;;;;7.35;4.55;;;;;;;;;;5118209;28;20483;-81
2021/01/13 16:39:44;;;;;;;15.20;4.95;;;;;;;;;;5119027;28;20024;-82
2021/01/13 16:42:10;;;;;;;12.13;6.30;;;;;;;;;;5106853;28;20040;-81
2021/01/13 16:44:36;;;;;;;15.02;7.82;;;;;;;;;;5096405;28;20055;-83
2021/01/13 16:47:03;;;;;;;10.88;4.78;;;;;;;;;;5097455;28;20102;-82
2021/01/13 16:49:30;;;;;;;12.95;6.35;;;;;;;;;;5103156;28;20023;-82
2021/01/13 16:51:58;;;;;;;140.40;55.10;;;;;;;;;;5105941;28;20044;-82
2021/01/13 16:54:24;;;;;;;107.82;47.55;;;;;;;;;;5103633;28;20080;-81
2021/01/13 16:56:50;;;;;;;49.88;23.40;;;;;;;;;;5100866;28;20375;-81
2021/01/13 17:01:34;;;;;;;12.60;6.65;;;;;;;;;;5123525;27;20382;-82
2021/01/13 17:04:00;;;;;;;10.73;5.57;;;;;;;;;;5121569;28;20106;-82
2021/01/13 17:06:26;;;;;;;15.05;7.32;;;;;;;;;;5111626;28;20720;-83
2021/01/13 17:08:59;;;;;;;10.45;6.75;;;;;;;;;;5118078;28;20201;-82
2021/01/13 17:11:25;;;;;;;8.23;5.10;;;;;;;;;;5114899;28;20046;-83
2021/01/13 17:13:51;;;;;;;8.10;4.85;;;;;;;;;;5110185;28;20023;-83
2021/01/13 17:16:17;;;;;;;8.10;4.40;;;;;;;;;;5114790;28;20037;-83
2021/01/13 17:18:44;;;;;;;9.52;5.25;;;;;;;;;;5118235;28;20098;-83
2021/01/13 17:21:14;;;;;;;12.80;5.20;;;;;;;;;;5107474;28;20020;-81
2021/01/13 17:23:40;;;;;;;12.82;7.32;;;;;;;;;;5108428;28;20024;-86
2021/01/13 17:26:06;;;;;;;15.63;7.60;;;;;;;;;;5106934;28;20429;-85
2021/01/13 17:28:32;;;;;;;9.68;5.63;;;;;;;;;;5107674;28;20610;-85
2021/01/13 17:30:58;;;;;;;9.20;4.82;;;;;;;;;;5098157;28;20055;-85
2021/01/13 17:33:24;;;;;;;7.85;4.93;;;;;;;;;;5107104;28;20066;-85
2021/01/13 17:35:50;;;;;;;8.35;5.03;;;;;;;;;;5110600;28;20023;-85
2021/01/13 17:38:17;;;;;;;8.63;4.80;;;;;;;;;;5109318;28;20077;-85
2021/01/13 17:40:44;;;;;;;15.30;8.25;;;;;;;;;;5109282;28;20024;-85
2021/01/13 17:43:14;;;;;;;9.82;6.10;;;;;;;;;;5105525;28;20029;-86
2021/01/13 17:45:40;;;;;;;29.63;14.65;;;;;;;;;;5116617;28;20027;-85
2021/01/13 17:48:06;;;;;;;19.58;9.73;;;;;;;;;;5118767;28;20111;-85
2021/01/13 17:50:32;;;;;;;12.13;6.97;;;;;;;;;;5114055;28;20019;-85
2021/01/13 17:53:02;;;;;;;8.93;5.85;;;;;;;;;;5119171;28;20031;-86
2021/01/13 17:55:29;;;;;;;11.15;6.53;;;;;;;;;;5098281;28;20038;-85
2021/01/13 17:57:55;;;;;;;10.65;6.38;;;;;;;;;;5120370;28;20023;-85
2021/01/13 18:00:21;;;;;;;9.48;5.57;;;;;;;;;;5095986;28;20028;-86
2021/01/13 18:03:01;;;;;;;7.80;5.28;;;;;;;;;;5112821;22;20044;-81
2021/01/13 18:05:31;;;;;;;7.97;4.82;;;;;;;;;;5064871;28;20035;-82
2021/01/13 18:10:15;;;;;;;9.13;5.35;;;;;;;;;;5085244;28;20357;-82
2021/01/13 18:12:42;;;;;;;16.40;6.82;;;;;;;;;;5057281;28;20017;-82
2021/01/13 18:15:10;;;;;;;15.48;8.30;;;;;;;;;;5062821;28;20044;-81
2021/01/13 18:18:07;;;;;;;18.17;10.35;;;;;;;;;;5045747;28;20039;-83
2021/01/13 18:20:37;;;;;;;13.30;7.03;;;;;;;;;;5057618;28;20032;-83
2021/01/13 18:23:29;;;;;;;8.45;5.32;;;;;;;;;;5076159;28;20430;-83
